createdAt,value
2018-09-08T00:00:24.234Z,-52
2018-09-08T00:01:22.017Z,-52
2018-09-08T00:02:20.525Z,-52
2018-09-08T00:03:19.592Z,-52
2018-09-08T00:04:19.550Z,-52
2018-09-08T00:05:32.365Z,-52
2018-09-08T00:06:37.052Z,-52
2018-09-08T00:07:32.707Z,-50
2018-09-08T00:08:34.030Z,-52
2018-09-08T00:10:48.526Z,-51
2018-09-08T00:11:47.829Z,-50
2018-09-08T00:12:46.895Z,-50
2018-09-08T00:13:44.482Z,-50
2018-09-08T00:14:56.633Z,-50
2018-09-08T00:15:55.558Z,-52
2018-09-08T00:16:55.238Z,-52
2018-09-08T00:17:57.966Z,-52
2018-09-08T00:18:53.048Z,-52
2018-09-08T00:19:53.474Z,-51
2018-09-08T00:20:52.301Z,-52
2018-09-08T00:21:50.168Z,-51
2018-09-08T00:24:01.360Z,-52
2018-09-08T00:25:05.386Z,-53
2018-09-08T00:26:08.126Z,-52
2018-09-08T00:27:07.987Z,-51
2018-09-08T00:28:15.104Z,-52
2018-09-08T00:29:22.314Z,-52
2018-09-08T00:30:19.721Z,-52
2018-09-08T00:31:22.949Z,-53
2018-09-08T00:32:22.913Z,-51
2018-09-08T00:33:22.699Z,-51
2018-09-08T00:34:24.953Z,-53
2018-09-08T00:36:35.916Z,-52
2018-09-08T00:37:35.347Z,-52
2018-09-08T00:38:39.201Z,-51
2018-09-08T00:39:38.938Z,-52
2018-09-08T00:40:37.478Z,-52
2018-09-08T00:41:36.838Z,-52
2018-09-08T00:42:37.889Z,-52
2018-09-08T00:43:33.338Z,-52
2018-09-08T00:44:34.426Z,-57
2018-09-08T00:45:32.267Z,-52
2018-09-08T00:46:34.924Z,-52
2018-09-08T00:47:39.905Z,-52
2018-09-08T00:48:38.590Z,-52
2018-09-08T00:50:49.329Z,-52
2018-09-08T00:51:47.893Z,-52
2018-09-08T00:52:48.304Z,-53
2018-09-08T00:53:47.093Z,-52
2018-09-08T00:54:45.121Z,-53
2018-09-08T00:55:41.402Z,-52
2018-09-08T00:56:41.665Z,-54
2018-09-08T00:57:39.859Z,-52
2018-09-08T00:58:37.372Z,-52
2018-09-08T00:59:37.451Z,-52
2018-09-08T01:00:36.055Z,-52
2018-09-08T01:01:35.232Z,-52
2018-09-08T01:03:44.310Z,-52
2018-09-08T01:04:42.336Z,-50
2018-09-08T01:05:37.516Z,-52
2018-09-08T01:06:40.214Z,-52
2018-09-08T01:07:38.065Z,-50
2018-09-08T01:08:35.622Z,-51
2018-09-08T01:09:33.582Z,-51
2018-09-08T01:10:34.718Z,-51
2018-09-08T01:11:41.300Z,-52
2018-09-08T01:12:44.535Z,-51
2018-09-08T01:13:43.891Z,-51
2018-09-08T01:14:42.071Z,-51
2018-09-08T01:15:36.444Z,-52
2018-09-08T01:17:50.359Z,-52
2018-09-08T01:18:53.852Z,-50
2018-09-08T01:19:52.503Z,-52
2018-09-08T01:20:56.797Z,-51
2018-09-08T01:22:01.819Z,-52
2018-09-08T01:23:01.731Z,-51
2018-09-08T01:24:00.417Z,-52
2018-09-08T01:25:00.798Z,-54
2018-09-08T01:26:05.510Z,-52
2018-09-08T01:28:21.026Z,-52
2018-09-08T01:29:20.896Z,-52
2018-09-08T01:30:18.795Z,-52
2018-09-08T01:31:18.046Z,-51
2018-09-08T01:32:20.019Z,-51
2018-09-08T01:33:17.494Z,-51
2018-09-08T01:34:15.499Z,-51
2018-09-08T01:35:18.771Z,-51
2018-09-08T01:36:26.379Z,-51
2018-09-08T01:37:21.595Z,-52
2018-09-08T01:39:34.068Z,-52
2018-09-08T01:40:38.732Z,-52
2018-09-08T01:41:39.722Z,-51
2018-09-08T01:42:40.531Z,-52
2018-09-08T01:43:38.132Z,-52
2018-09-08T01:44:38.914Z,-52
2018-09-08T01:45:37.609Z,-52
2018-09-08T01:46:39.150Z,-52
2018-09-08T01:47:39.006Z,-52
2018-09-08T01:48:34.714Z,-52
2018-09-08T01:50:43.863Z,-52
2018-09-08T01:51:47.974Z,-52
2018-09-08T01:52:46.075Z,-52
2018-09-08T01:53:43.872Z,-52
2018-09-08T01:54:41.758Z,-52
2018-09-08T01:55:39.568Z,-52
2018-09-08T01:56:37.227Z,-53
2018-09-08T01:57:34.462Z,-52
2018-09-08T01:58:36.044Z,-54
2018-09-08T02:00:44.506Z,-52
2018-09-08T02:01:42.440Z,-50
2018-09-08T02:02:41.748Z,-51
2018-09-08T02:03:40.772Z,-51
2018-09-08T02:04:39.932Z,-52
2018-09-08T02:05:38.696Z,-50
2018-09-08T02:06:38.789Z,-50
2018-09-08T02:07:39.146Z,-50
2018-09-08T02:08:39.484Z,-51
2018-09-08T02:10:51.809Z,-52
2018-09-08T02:11:56.154Z,-51
2018-09-08T02:13:04.733Z,-51
2018-09-08T02:14:06.350Z,-51
2018-09-08T02:15:04.432Z,-51
2018-09-08T02:16:03.453Z,-52
2018-09-08T02:17:07.496Z,-51
2018-09-08T02:18:07.575Z,-51
2018-09-08T02:19:09.315Z,-52
2018-09-08T02:20:08.111Z,-52
2018-09-08T02:21:12.746Z,-52
2018-09-08T02:23:22.340Z,-51
2018-09-08T02:24:22.213Z,-51
2018-09-08T02:25:20.951Z,-51
2018-09-08T02:26:18.969Z,-52
2018-09-08T02:27:20.530Z,-52
2018-09-08T02:28:19.505Z,-51
2018-09-08T02:29:15.125Z,-51
2018-09-08T02:30:34.569Z,-53
2018-09-08T02:31:32.486Z,-51
2018-09-08T02:32:35.635Z,-52
2018-09-08T02:34:43.096Z,-52
2018-09-08T02:35:40.683Z,-52
2018-09-08T02:36:38.315Z,-52
2018-09-08T02:37:36.544Z,-51
2018-09-08T02:38:38.098Z,-52
2018-09-08T02:39:43.751Z,-51
2018-09-08T02:40:42.972Z,-52
2018-09-08T02:41:47.700Z,-54
2018-09-08T02:42:46.405Z,-52
2018-09-08T02:43:44.930Z,-52
2018-09-08T02:44:43.697Z,-51
2018-09-08T02:46:53.672Z,-53
2018-09-08T02:47:51.670Z,-52
2018-09-08T02:48:59.995Z,-52
2018-09-08T02:49:59.463Z,-52
2018-09-08T02:51:01.553Z,-51
2018-09-08T02:52:02.028Z,-52
2018-09-08T02:53:02.659Z,-52
2018-09-08T02:54:00.534Z,-52
2018-09-08T02:54:59.616Z,-52
2018-09-08T02:57:22.297Z,-54
2018-09-08T02:58:19.793Z,-52
2018-09-08T02:59:18.816Z,-53
2018-09-08T03:00:20.314Z,-52
2018-09-08T03:01:22.442Z,-52
2018-09-08T03:02:22.689Z,-54
2018-09-08T03:03:20.688Z,-52
2018-09-08T03:04:21.049Z,-52
2018-09-08T03:05:26.801Z,-52
2018-09-08T03:06:27.993Z,-52
2018-09-08T03:08:35.014Z,-51
2018-09-08T03:09:32.857Z,-51
2018-09-08T03:10:30.484Z,-52
2018-09-08T03:11:37.266Z,-51
2018-09-08T03:12:37.865Z,-51
2018-09-08T03:13:39.478Z,-51
2018-09-08T03:14:38.403Z,-51
2018-09-08T03:15:41.454Z,-50
2018-09-08T03:16:39.028Z,-50
2018-09-08T03:17:39.570Z,-51
2018-09-08T03:18:37.611Z,-50
2018-09-08T03:19:36.886Z,-50
2018-09-08T03:21:44.460Z,-51
2018-09-08T03:22:44.188Z,-51
2018-09-08T03:23:42.718Z,-50
2018-09-08T03:24:41.002Z,-50
2018-09-08T03:25:38.862Z,-51
2018-09-08T03:26:40.928Z,-51
2018-09-08T03:27:40.924Z,-51
2018-09-08T03:28:40.383Z,-50
2018-09-08T03:29:42.689Z,-51
2018-09-08T03:30:40.519Z,-51
2018-09-08T03:31:41.157Z,-51
2018-09-08T03:32:43.839Z,-50
2018-09-08T03:33:38.562Z,-51
2018-09-08T03:35:46.117Z,-52
2018-09-08T03:36:51.415Z,-51
2018-09-08T03:37:53.262Z,-51
2018-09-08T03:38:54.469Z,-52
2018-09-08T03:39:56.245Z,-52
2018-09-08T03:40:56.901Z,-52
2018-09-08T03:41:54.913Z,-51
2018-09-08T03:42:55.258Z,-52
2018-09-08T03:43:52.527Z,-52
2018-09-08T03:46:14.075Z,-52
2018-09-08T03:47:18.664Z,-52
2018-09-08T03:48:24.481Z,-51
2018-09-08T03:49:23.938Z,-52
2018-09-08T03:50:23.058Z,-52
2018-09-08T03:51:24.013Z,-52
2018-09-08T03:52:18.678Z,-51
2018-09-08T03:53:21.903Z,-52
2018-09-08T03:54:19.769Z,-53
2018-09-08T03:55:22.097Z,-51
2018-09-08T03:56:21.033Z,-52
2018-09-08T03:58:30.050Z,-52
2018-09-08T03:59:30.158Z,-51
2018-09-08T04:00:28.443Z,-51
2018-09-08T04:01:32.490Z,-52
2018-09-08T04:02:33.632Z,-52
2018-09-08T04:03:28.966Z,-51
2018-09-08T04:04:27.883Z,-52
2018-09-08T04:05:30.701Z,-53
2018-09-08T04:06:26.601Z,-52
2018-09-08T04:07:26.822Z,-53
2018-09-08T04:08:41.291Z,-52
2018-09-08T04:09:38.911Z,-50
2018-09-08T04:10:40.522Z,-50
2018-09-08T04:11:44.318Z,-50
2018-09-08T04:13:58.437Z,-52
2018-09-08T04:14:55.999Z,-52
2018-09-08T04:15:53.952Z,-51
2018-09-08T04:16:58.275Z,-51
2018-09-08T04:17:55.961Z,-52
2018-09-08T04:18:58.782Z,-51
2018-09-08T04:19:58.870Z,-52
2018-09-08T04:21:00.430Z,-52
2018-09-08T04:22:00.718Z,-52
2018-09-08T04:22:55.934Z,-52
2018-09-08T04:25:16.504Z,-52
2018-09-08T04:26:14.326Z,-52
2018-09-08T04:27:19.981Z,-52
2018-09-08T04:28:17.922Z,-51
2018-09-08T04:29:17.136Z,-51
2018-09-08T04:30:15.633Z,-51
2018-09-08T04:31:13.676Z,-51
2018-09-08T04:32:08.820Z,-51
2018-09-08T04:33:09.194Z,-53
2018-09-08T04:34:08.758Z,-51
2018-09-08T04:35:04.130Z,-52
2018-09-08T04:37:19.944Z,-52
2018-09-08T04:38:18.731Z,-51
2018-09-08T04:39:16.318Z,-51
2018-09-08T04:40:17.033Z,-51
2018-09-08T04:41:16.597Z,-51
2018-09-08T04:42:18.616Z,-52
2018-09-08T04:43:13.926Z,-51
2018-09-08T04:44:15.760Z,-54
2018-09-08T04:45:16.591Z,-53
2018-09-08T04:46:16.034Z,-52
2018-09-08T04:47:15.707Z,-52
2018-09-08T04:49:23.852Z,-53
2018-09-08T04:50:22.005Z,-51
2018-09-08T04:51:17.256Z,-52
2018-09-08T04:52:21.787Z,-53
2018-09-08T04:53:22.891Z,-52
2018-09-08T04:54:21.675Z,-52
2018-09-08T04:55:19.949Z,-52
2018-09-08T04:56:26.534Z,-51
2018-09-08T04:57:25.147Z,-52
2018-09-08T04:58:26.432Z,-51
2018-09-08T04:59:24.790Z,-51
2018-09-08T05:01:40.182Z,-51
2018-09-08T05:02:38.020Z,-51
2018-09-08T05:03:40.179Z,-51
2018-09-08T05:04:39.942Z,-52
2018-09-08T05:05:40.158Z,-50
2018-09-08T05:06:39.563Z,-51
2018-09-08T05:07:41.515Z,-50
2018-09-08T05:08:41.035Z,-50
2018-09-08T05:09:37.564Z,-50
2018-09-08T05:11:49.535Z,-51
2018-09-08T05:12:47.665Z,-51
2018-09-08T05:13:48.360Z,-50
2018-09-08T05:14:50.652Z,-53
2018-09-08T05:15:49.843Z,-52
2018-09-08T05:16:50.108Z,-51
2018-09-08T05:17:52.895Z,-51
2018-09-08T05:18:50.137Z,-51
2018-09-08T05:19:49.776Z,-52
2018-09-08T05:20:51.916Z,-51
2018-09-08T05:21:50.806Z,-51
2018-09-08T05:22:48.627Z,-51
2018-09-08T05:23:49.065Z,-51
2018-09-08T05:25:55.673Z,-52
2018-09-08T05:26:53.266Z,-51
2018-09-08T05:27:51.180Z,-51
2018-09-08T05:28:50.700Z,-50
2018-09-08T05:29:51.244Z,-51
2018-09-08T05:30:51.954Z,-51
2018-09-08T05:32:07.866Z,-50
2018-09-08T05:33:07.316Z,-52
2018-09-08T05:34:09.455Z,-55
2018-09-08T05:35:16.692Z,-52
2018-09-08T05:36:16.223Z,-50
2018-09-08T05:36:47.714Z,-51
2018-09-08T05:37:46.143Z,-51
2018-09-08T05:38:42.027Z,-52
2018-09-08T05:40:49.392Z,-52
2018-09-08T05:41:47.970Z,-52
2018-09-08T05:42:42.808Z,-52
2018-09-08T05:43:47.036Z,-52
2018-09-08T05:44:48.603Z,-52
2018-09-08T05:45:47.899Z,-51
2018-09-08T05:46:50.205Z,-52
2018-09-08T05:47:50.043Z,-51
2018-09-08T05:48:47.375Z,-51
2018-09-08T05:49:52.597Z,-55
2018-09-08T05:50:52.664Z,-52
2018-09-08T05:51:54.407Z,-52
2018-09-08T05:54:07.347Z,-52
2018-09-08T05:55:04.952Z,-51
2018-09-08T05:56:03.468Z,-51
2018-09-08T05:57:01.468Z,-52
2018-09-08T05:58:00.985Z,-51
2018-09-08T05:58:59.526Z,-52
2018-09-08T05:59:59.576Z,-51
2018-09-08T06:00:59.580Z,-51
2018-09-08T06:01:58.131Z,-52
2018-09-08T06:02:55.650Z,-51
2018-09-08T06:05:03.403Z,-52
2018-09-08T06:06:07.041Z,-51
2018-09-08T06:07:05.029Z,-51
2018-09-08T06:08:09.300Z,-52
2018-09-08T06:09:11.544Z,-52
2018-09-08T06:10:08.887Z,-52
2018-09-08T06:11:06.413Z,-51
2018-09-08T06:12:09.405Z,-52
2018-09-08T06:13:04.634Z,-52
2018-09-08T06:14:05.392Z,-53
2018-09-08T06:15:09.608Z,-52
2018-09-08T06:17:20.217Z,-52
2018-09-08T06:18:18.531Z,-52
2018-09-08T06:19:17.138Z,-52
2018-09-08T06:20:18.919Z,-51
2018-09-08T06:21:26.158Z,-52
2018-09-08T06:22:24.435Z,-51
2018-09-08T06:23:22.846Z,-52
2018-09-08T06:24:22.425Z,-52
2018-09-08T06:25:20.120Z,-51
2018-09-08T06:26:19.034Z,-52
2018-09-08T06:27:23.525Z,-51
2018-09-08T06:28:21.137Z,-52
2018-09-08T06:29:19.251Z,-51
2018-09-08T06:30:20.327Z,-51
2018-09-08T06:32:35.077Z,-51
2018-09-08T06:33:33.191Z,-51
2018-09-08T06:34:38.394Z,-51
2018-09-08T06:35:36.615Z,-51
2018-09-08T06:36:43.552Z,-51
2018-09-08T06:37:42.068Z,-52
2018-09-08T06:38:45.719Z,-52
2018-09-08T06:39:42.529Z,-51
2018-09-08T06:40:44.445Z,-55
2018-09-08T06:41:41.729Z,-52
2018-09-08T06:42:46.952Z,-52
2018-09-08T06:44:56.069Z,-53
2018-09-08T06:45:53.880Z,-51
2018-09-08T06:46:49.854Z,-51
2018-09-08T06:47:56.349Z,-54
2018-09-08T06:48:54.294Z,-52
2018-09-08T06:49:56.698Z,-52
2018-09-08T06:50:53.726Z,-51
2018-09-08T06:52:00.481Z,-53
2018-09-08T06:53:00.913Z,-51
2018-09-08T06:54:03.297Z,-52
2018-09-08T06:55:04.523Z,-53
2018-09-08T06:56:04.537Z,-51
2018-09-08T06:58:15.028Z,-52
2018-09-08T06:59:13.297Z,-52
2018-09-08T07:00:12.728Z,-51
2018-09-08T07:01:12.898Z,-51
2018-09-08T07:02:11.504Z,-51
2018-09-08T07:03:09.362Z,-51
2018-09-08T07:04:07.241Z,-51
2018-09-08T07:05:06.103Z,-51
2018-09-08T07:06:00.998Z,-51
2018-09-08T07:08:09.083Z,-51
2018-09-08T07:09:07.454Z,-51
2018-09-08T07:10:08.634Z,-51
2018-09-08T07:11:08.047Z,-51
2018-09-08T07:12:06.756Z,-50
2018-09-08T07:13:05.146Z,-51
2018-09-08T07:14:04.650Z,-51
2018-09-08T07:15:02.605Z,-51
2018-09-08T07:15:59.023Z,-51
2018-09-08T07:16:58.614Z,-50
2018-09-08T07:19:08.259Z,-51
2018-09-08T07:20:06.553Z,-51
2018-09-08T07:21:08.766Z,-50
2018-09-08T07:22:04.809Z,-51
2018-09-08T07:23:03.283Z,-52
2018-09-08T07:24:04.845Z,-54
2018-09-08T07:25:06.431Z,-51
2018-09-08T07:26:04.314Z,-51
2018-09-08T07:27:07.697Z,-50
2018-09-08T07:28:06.309Z,-50
2018-09-08T07:29:06.895Z,-50
2018-09-08T07:31:13.188Z,-51
2018-09-08T07:32:12.457Z,-51
2018-09-08T07:33:14.408Z,-51
2018-09-08T07:34:12.507Z,-51
2018-09-08T07:35:14.779Z,-50
2018-09-08T07:36:14.670Z,-51
2018-09-08T07:37:15.962Z,-53
2018-09-08T07:38:13.236Z,-50
2018-09-08T07:39:10.845Z,-50
2018-09-08T07:40:09.068Z,-49
2018-09-08T07:42:15.009Z,-48
2018-09-08T07:43:15.856Z,-47
2018-09-08T07:44:12.058Z,-50
2018-09-08T07:45:14.093Z,-50
2018-09-08T07:46:12.207Z,-48
2018-09-08T07:47:13.416Z,-48
2018-09-08T07:48:08.308Z,-48
2018-09-08T07:49:06.417Z,-49
2018-09-08T07:50:04.873Z,-52
2018-09-08T07:51:02.995Z,-50
2018-09-08T07:52:02.048Z,-49
2018-09-08T07:54:14.297Z,-51
2018-09-08T07:55:12.739Z,-50
2018-09-08T07:56:12.209Z,-50
2018-09-08T07:57:13.606Z,-49
2018-09-08T07:58:17.034Z,-54
2018-09-08T07:59:23.887Z,-50
2018-09-08T08:00:22.529Z,-59
2018-09-08T08:01:21.508Z,-53
2018-09-08T08:02:20.548Z,-54
2018-09-08T08:03:20.639Z,-53
2018-09-08T08:04:23.329Z,-53
2018-09-08T08:05:19.271Z,-54
2018-09-08T08:06:16.700Z,-54
2018-09-08T08:08:28.180Z,-55
2018-09-08T08:09:27.453Z,-65
2018-09-08T08:10:26.593Z,-54
2018-09-08T08:11:26.101Z,-54
2018-09-08T08:12:25.814Z,-53
2018-09-08T08:13:24.075Z,-54
2018-09-08T08:14:34.618Z,-53
2018-09-08T08:15:32.784Z,-55
2018-09-08T08:16:33.149Z,-55
2018-09-08T08:17:31.687Z,-55
2018-09-08T08:18:32.743Z,-55
2018-09-08T08:19:30.124Z,-54
2018-09-08T08:21:40.815Z,-55
2018-09-08T08:22:40.052Z,-55
2018-09-08T08:23:39.589Z,-54
2018-09-08T08:24:37.329Z,-54
2018-09-08T08:25:36.533Z,-54
2018-09-08T08:26:39.607Z,-55
2018-09-08T08:27:37.761Z,-55
2018-09-08T08:28:35.523Z,-54
2018-09-08T08:29:36.448Z,-54
2018-09-08T08:30:35.292Z,-55
2018-09-08T08:31:30.108Z,-54
2018-09-08T08:33:45.856Z,-54
2018-09-08T08:34:45.501Z,-54
2018-09-08T08:35:43.193Z,-55
2018-09-08T08:36:41.510Z,-55
2018-09-08T08:37:40.315Z,-55
2018-09-08T08:38:36.696Z,-54
2018-09-08T08:39:40.319Z,-56
2018-09-08T08:40:38.344Z,-50
2018-09-08T08:41:38.308Z,-49
2018-09-08T08:42:38.793Z,-50
2018-09-08T08:43:39.739Z,-50
2018-09-08T08:44:47.702Z,-49
2018-09-08T08:45:43.120Z,-49
2018-09-08T08:46:43.451Z,-50
2018-09-08T08:47:45.307Z,-51
2018-09-08T08:48:46.379Z,-51
2018-09-08T08:50:56.068Z,-52
2018-09-08T08:51:54.355Z,-50
2018-09-08T08:52:55.124Z,-50
2018-09-08T08:53:53.953Z,-50
2018-09-08T08:54:51.527Z,-50
2018-09-08T08:55:55.480Z,-50
2018-09-08T08:56:53.363Z,-48
2018-09-08T08:57:49.381Z,-51
2018-09-08T08:58:51.896Z,-53
2018-09-08T08:59:52.575Z,-51
2018-09-08T09:00:50.159Z,-51
2018-09-08T09:01:48.205Z,-51
2018-09-08T09:02:43.573Z,-50
2018-09-08T09:04:53.065Z,-53
2018-09-08T09:05:52.548Z,-51
2018-09-08T09:06:50.484Z,-50
2018-09-08T09:07:48.489Z,-50
2018-09-08T09:08:47.970Z,-50
2018-09-08T09:09:46.141Z,-50
2018-09-08T09:10:43.887Z,-49
2018-09-08T09:11:43.582Z,-49
2018-09-08T09:12:44.816Z,-49
2018-09-08T09:13:50.457Z,-50
2018-09-08T09:14:45.857Z,-51
2018-09-08T09:15:47.693Z,-50
2018-09-08T09:17:56.960Z,-49
2018-09-08T09:18:55.069Z,-50
2018-09-08T09:19:53.112Z,-51
2018-09-08T09:20:50.708Z,-49
2018-09-08T09:21:50.385Z,-49
2018-09-08T09:22:47.845Z,-50
2018-09-08T09:23:51.113Z,-48
2018-09-08T09:24:50.914Z,-49
2018-09-08T09:25:48.074Z,-49
2018-09-08T09:26:47.316Z,-49
2018-09-08T09:27:46.504Z,-48
2018-09-08T09:28:47.627Z,-49
2018-09-08T09:29:50.500Z,-48
2018-09-08T09:30:49.082Z,-50
2018-09-08T09:31:47.830Z,-51
2018-09-08T09:32:42.649Z,-50
2018-09-08T09:33:41.868Z,-50
2018-09-08T09:35:51.629Z,-50
2018-09-08T09:36:50.289Z,-50
2018-09-08T09:37:48.266Z,-49
2018-09-08T09:38:45.932Z,-49
2018-09-08T09:39:45.894Z,-51
2018-09-08T09:40:43.978Z,-48
2018-09-08T09:41:39.715Z,-49
2018-09-08T09:42:42.255Z,-50
2018-09-08T09:43:41.081Z,-49
2018-09-08T09:44:35.726Z,-49
2018-09-08T09:46:44.875Z,-50
2018-09-08T09:47:43.753Z,-50
2018-09-08T09:48:43.966Z,-49
2018-09-08T09:49:41.686Z,-49
2018-09-08T09:50:44.122Z,-49
2018-09-08T09:51:44.039Z,-49
2018-09-08T09:52:42.049Z,-49
2018-09-08T09:53:41.768Z,-49
2018-09-08T09:54:42.434Z,-49
2018-09-08T09:55:42.546Z,-50
2018-09-08T09:56:49.472Z,-50
2018-09-08T09:57:44.776Z,-52
2018-09-08T09:58:45.706Z,-53
2018-09-08T10:00:54.093Z,-52
2018-09-08T10:01:54.461Z,-51
2018-09-08T10:02:54.651Z,-50
2018-09-08T10:03:52.925Z,-50
2018-09-08T10:04:52.681Z,-49
2018-09-08T10:05:50.447Z,-49
2018-09-08T10:06:50.613Z,-49
2018-09-08T10:07:52.101Z,-49
2018-09-08T10:08:52.055Z,-50
2018-09-08T10:09:53.251Z,-51
2018-09-08T10:12:03.298Z,-50
2018-09-08T10:13:01.737Z,-49
2018-09-08T10:13:59.327Z,-48
2018-09-08T10:15:00.270Z,-49
2018-09-08T10:15:58.704Z,-49
2018-09-08T10:16:58.313Z,-50
2018-09-08T10:18:00.820Z,-50
2018-09-08T10:18:58.576Z,-49
2018-09-08T10:19:58.424Z,-54
2018-09-08T10:20:54.779Z,-52
2018-09-08T10:21:57.411Z,-54
2018-09-08T10:24:07.363Z,-51
2018-09-08T10:25:07.611Z,-50
2018-09-08T10:26:06.712Z,-50
2018-09-08T10:27:06.915Z,-51
2018-09-08T10:28:05.605Z,-51
2018-09-08T10:29:03.956Z,-50
2018-09-08T10:30:04.888Z,-51
2018-09-08T10:31:03.138Z,-50
2018-09-08T10:32:04.953Z,-52
2018-09-08T10:33:04.148Z,-51
2018-09-08T10:34:03.226Z,-51
2018-09-08T10:34:57.863Z,-51
2018-09-08T10:37:08.445Z,-52
2018-09-08T10:38:06.471Z,-51
2018-09-08T10:39:08.843Z,-52
2018-09-08T10:40:07.269Z,-51
2018-09-08T10:41:08.769Z,-51
2018-09-08T10:42:06.867Z,-51
2018-09-08T10:43:06.228Z,-52
2018-09-08T10:44:04.754Z,-51
2018-09-08T10:45:02.794Z,-51
2018-09-08T10:46:02.421Z,-50
2018-09-08T10:46:59.320Z,-51
2018-09-08T10:49:12.673Z,-50
2018-09-08T10:50:13.387Z,-49
2018-09-08T10:51:12.938Z,-49
2018-09-08T10:52:24.828Z,-49
2018-09-08T10:53:22.620Z,-48
2018-09-08T10:54:27.231Z,-48
2018-09-08T10:55:25.280Z,-48
2018-09-08T10:56:24.258Z,-48
2018-09-08T10:57:26.301Z,-49
2018-09-08T10:59:37.220Z,-49
2018-09-08T11:00:36.129Z,-49
2018-09-08T11:01:34.362Z,-48
2018-09-08T11:02:35.403Z,-47
2018-09-08T11:03:34.488Z,-49
2018-09-08T11:04:32.145Z,-50
2018-09-08T11:05:29.880Z,-51
2018-09-08T11:06:29.503Z,-54
2018-09-08T11:07:27.208Z,-53
2018-09-08T11:08:22.742Z,-53
2018-09-08T11:10:29.583Z,-51
2018-09-08T11:11:27.591Z,-51
2018-09-08T11:12:30.431Z,-53
2018-09-08T11:13:28.372Z,-49
2018-09-08T11:14:27.505Z,-58
2018-09-08T11:15:25.301Z,-51
2018-09-08T11:16:23.224Z,-51
2018-09-08T11:17:25.605Z,-51
2018-09-08T11:18:24.405Z,-50
2018-09-08T11:19:22.420Z,-50
2018-09-08T11:20:20.600Z,-50
2018-09-08T11:21:16.247Z,-50
2018-09-08T11:23:28.314Z,-50
2018-09-08T11:24:29.379Z,-51
2018-09-08T11:25:29.182Z,-50
2018-09-08T11:26:27.508Z,-50
2018-09-08T11:27:27.105Z,-51
2018-09-08T11:28:24.732Z,-50
2018-09-08T11:29:23.527Z,-49
2018-09-08T11:30:30.804Z,-51
2018-09-08T11:31:30.804Z,-51
2018-09-08T11:33:46.978Z,-50
2018-09-08T11:34:49.694Z,-50
2018-09-08T11:35:47.233Z,-50
2018-09-08T11:36:45.769Z,-50
2018-09-08T11:37:52.221Z,-50
2018-09-08T11:38:50.849Z,-50
2018-09-08T11:39:51.293Z,-50
2018-09-08T11:40:51.309Z,-50
2018-09-08T11:41:50.699Z,-50
2018-09-08T11:42:46.585Z,-50
2018-09-08T11:45:00.439Z,-51
2018-09-08T11:45:59.719Z,-51
2018-09-08T11:46:57.774Z,-50
2018-09-08T11:47:56.144Z,-50
2018-09-08T11:48:54.457Z,-50
2018-09-08T11:50:10.303Z,-51
2018-09-08T11:51:12.188Z,-50
2018-09-08T11:52:13.104Z,-50
2018-09-08T11:53:11.390Z,-50
2018-09-08T11:55:33.127Z,-50
2018-09-08T11:56:35.504Z,-50
2018-09-08T11:57:34.027Z,-50
2018-09-08T11:58:32.302Z,-50
2018-09-08T11:59:35.163Z,-51
2018-09-08T12:00:35.199Z,-51
2018-09-08T12:01:35.242Z,-51
2018-09-08T12:02:33.589Z,-51
2018-09-08T12:03:32.214Z,-50
2018-09-08T12:04:34.416Z,-50
2018-09-08T12:05:33.267Z,-50
2018-09-08T12:06:33.521Z,-50
2018-09-08T12:07:30.879Z,-50
2018-09-08T12:08:37.782Z,-51
2018-09-08T12:10:48.448Z,-50
2018-09-08T12:11:47.459Z,-49
2018-09-08T12:12:45.214Z,-50
2018-09-08T12:13:43.424Z,-50
2018-09-08T12:14:42.952Z,-50
2018-09-08T12:15:40.880Z,-50
2018-09-08T12:16:35.379Z,-50
2018-09-08T12:17:32.533Z,-51
2018-09-08T12:18:33.495Z,-49
2018-09-08T12:19:35.818Z,-50
2018-09-08T12:21:47.156Z,-51
2018-09-08T12:22:49.626Z,-51
2018-09-08T12:23:48.646Z,-51
2018-09-08T12:24:50.989Z,-50
2018-09-08T12:25:47.937Z,-50
2018-09-08T12:26:49.124Z,-51
2018-09-08T12:27:46.910Z,-49
2018-09-08T12:28:44.967Z,-49
2018-09-08T12:29:45.437Z,-51
2018-09-08T12:30:44.735Z,-51
2018-09-08T12:32:54.954Z,-53
2018-09-08T12:33:55.362Z,-53
2018-09-08T12:34:53.932Z,-53
2018-09-08T12:35:54.213Z,-54
2018-09-08T12:36:53.112Z,-54
2018-09-08T12:37:50.972Z,-55
2018-09-08T12:38:58.330Z,-53
2018-09-08T12:39:57.226Z,-52
2018-09-08T12:41:04.280Z,-54
2018-09-08T12:41:58.987Z,-53
2018-09-08T12:42:56.148Z,-56
2018-09-08T12:45:03.823Z,-53
2018-09-08T12:46:03.609Z,-52
2018-09-08T12:47:06.139Z,-53
2018-09-08T12:48:05.848Z,-53
2018-09-08T12:49:04.872Z,-52
2018-09-08T12:50:04.356Z,-53
2018-09-08T12:51:04.400Z,-54
2018-09-08T12:52:02.672Z,-53
2018-09-08T12:53:01.411Z,-55
2018-09-08T12:53:59.961Z,-55
2018-09-08T12:55:01.110Z,-55
2018-09-08T12:56:01.614Z,-54
2018-09-08T12:56:56.431Z,-54
2018-09-08T12:59:05.445Z,-55
2018-09-08T13:00:03.168Z,-55
2018-09-08T13:01:02.209Z,-54
2018-09-08T13:02:03.103Z,-55
2018-09-08T13:03:01.128Z,-54
2018-09-08T13:04:03.543Z,-54
2018-09-08T13:05:03.135Z,-54
2018-09-08T13:06:08.146Z,-54
2018-09-08T13:07:04.687Z,-53
2018-09-08T13:09:12.785Z,-55
2018-09-08T13:10:14.357Z,-54
2018-09-08T13:11:20.602Z,-56
2018-09-08T13:12:19.785Z,-56
2018-09-08T13:13:19.624Z,-55
2018-09-08T13:14:17.511Z,-56
2018-09-08T13:15:16.019Z,-55
2018-09-08T13:16:14.203Z,-56
2018-09-08T13:17:12.595Z,-56
2018-09-08T13:18:13.938Z,-56
2018-09-08T13:19:25.309Z,-56
2018-09-08T13:21:34.757Z,-57
2018-09-08T13:22:34.285Z,-57
2018-09-08T13:23:37.268Z,-54
2018-09-08T13:24:35.427Z,-55
2018-09-08T13:25:34.746Z,-54
2018-09-08T13:26:33.476Z,-54
2018-09-08T13:27:33.939Z,-54
2018-09-08T13:28:34.421Z,-54
2018-09-08T13:29:31.712Z,-59
2018-09-08T13:31:42.166Z,-54
2018-09-08T13:32:41.196Z,-54
2018-09-08T13:33:40.779Z,-54
2018-09-08T13:34:38.809Z,-53
2018-09-08T13:35:37.873Z,-53
2018-09-08T13:36:36.886Z,-53
2018-09-08T13:37:36.807Z,-53
2018-09-08T13:38:35.088Z,-53
2018-09-08T13:39:33.903Z,-53
2018-09-08T13:40:35.333Z,-53
2018-09-08T13:42:49.463Z,-54
2018-09-08T13:43:45.329Z,-53
2018-09-08T13:44:43.475Z,-53
2018-09-08T13:45:42.198Z,-53
2018-09-08T13:46:41.111Z,-53
2018-09-08T13:47:41.949Z,-52
2018-09-08T13:48:40.570Z,-52
2018-09-08T13:49:42.566Z,-52
2018-09-08T13:50:40.103Z,-52
2018-09-08T13:51:54.672Z,-53
2018-09-08T13:52:51.189Z,-52
2018-09-08T13:55:02.685Z,-53
2018-09-08T13:56:02.131Z,-52
2018-09-08T13:57:01.361Z,-53
2018-09-08T13:58:12.277Z,-52
2018-09-08T13:59:10.964Z,-52
2018-09-08T14:00:14.196Z,-52
2018-09-08T14:01:12.020Z,-53
2018-09-08T14:02:10.770Z,-53
2018-09-08T14:03:08.578Z,-53
2018-09-08T14:04:08.338Z,-52
2018-09-08T14:06:22.867Z,-54
2018-09-08T14:07:24.289Z,-51
2018-09-08T14:08:29.424Z,-51
2018-09-08T14:09:28.841Z,-52
2018-09-08T14:10:26.998Z,-52
2018-09-08T14:11:28.453Z,-52
2018-09-08T14:12:28.731Z,-53
2018-09-08T14:13:28.166Z,-53
2018-09-08T14:14:33.353Z,-54
2018-09-08T14:15:31.508Z,-53
2018-09-08T14:16:31.635Z,-53
2018-09-08T14:17:31.217Z,-53
2018-09-08T14:20:08.496Z,-54
2018-09-08T14:21:05.912Z,-53
2018-09-08T14:22:10.480Z,-53
2018-09-08T14:23:15.670Z,-54
2018-09-08T14:24:15.692Z,-52
2018-09-08T14:25:13.600Z,-52
2018-09-08T14:26:09.614Z,-53
2018-09-08T14:27:11.887Z,-54
2018-09-08T14:28:20.517Z,-54
2018-09-08T14:29:18.437Z,-53
2018-09-08T14:31:34.727Z,-53
2018-09-08T14:32:33.909Z,-53
2018-09-08T14:33:31.612Z,-54
2018-09-08T14:34:31.463Z,-53
2018-09-08T14:35:34.457Z,-53
2018-09-08T14:36:36.974Z,-52
2018-09-08T14:37:36.430Z,-53
2018-09-08T14:38:34.628Z,-54
2018-09-08T14:39:34.235Z,-53
2018-09-08T14:40:33.200Z,-54
2018-09-08T14:41:31.403Z,-52
2018-09-08T14:42:27.480Z,-53
2018-09-08T14:43:33.124Z,-55
2018-09-08T14:44:30.780Z,-56
2018-09-08T14:45:33.232Z,-56
2018-09-08T14:46:34.347Z,-55
2018-09-08T14:48:42.425Z,-57
2018-09-08T14:49:42.673Z,-56
2018-09-08T14:50:40.267Z,-57
2018-09-08T14:51:39.793Z,-57
2018-09-08T14:52:38.810Z,-57
2018-09-08T14:53:36.950Z,-56
2018-09-08T14:54:40.141Z,-58
2018-09-08T14:55:45.904Z,-57
2018-09-08T14:56:59.316Z,-57
2018-09-08T14:58:05.388Z,-56
2018-09-08T14:58:57.147Z,-56
2018-09-08T14:59:55.344Z,-57
2018-09-08T15:02:08.537Z,-56
2018-09-08T15:03:07.054Z,-55
2018-09-08T15:04:05.845Z,-55
2018-09-08T15:05:04.889Z,-56
2018-09-08T15:06:03.805Z,-57
2018-09-08T15:07:06.296Z,-55
2018-09-08T15:08:05.892Z,-58
2018-09-08T15:09:05.195Z,-52
2018-09-08T15:10:05.085Z,-52
2018-09-08T15:11:04.524Z,-53
2018-09-08T15:12:06.700Z,-49
2018-09-08T15:13:05.297Z,-50